createdAt,value
2022-10-23T00:03:39.923Z,10.55
2022-10-23T00:08:42.180Z,10.49
2022-10-23T00:13:44.398Z,10.46
2022-10-23T00:18:46.305Z,10.44
2022-10-23T00:23:48.150Z,10.42
2022-10-23T00:28:52.461Z,10.39
2022-10-23T00:33:54.654Z,10.35
2022-10-23T00:38:56.870Z,10.34
2022-10-23T00:43:58.631Z,10.33
2022-10-23T00:49:01.267Z,10.33
2022-10-23T00:54:24.002Z,10.31
2022-10-23T00:59:27.537Z,10.26
2022-10-23T01:04:30.308Z,10.21
2022-10-23T01:09:36.790Z,10.14
2022-10-23T01:15:05.412Z,10.05
2022-10-23T01:20:36.610Z,9.97
2022-10-23T01:26:02.585Z,9.88
2022-10-23T01:31:11.725Z,9.78
2022-10-23T01:36:16.790Z,9.68
2022-10-23T01:41:27.973Z,9.62
2022-10-23T01:46:31.489Z,9.58
2022-10-23T01:51:37.072Z,9.61
2022-10-23T01:56:45.083Z,9.66
2022-10-23T02:01:51.334Z,9.69
2022-10-23T02:06:53.970Z,9.72
2022-10-23T02:12:07.110Z,9.74
2022-10-23T02:17:26.878Z,9.74
2022-10-23T02:22:38.334Z,9.70
2022-10-23T02:27:50.992Z,9.64
2022-10-23T02:32:55.441Z,9.53
2022-10-23T02:37:59.607Z,9.41
2022-10-23T02:43:10.044Z,9.33
2022-10-23T02:48:19.072Z,9.27
2022-10-23T02:53:48.398Z,9.19
2022-10-23T02:59:43.772Z,9.14
2022-10-23T03:04:47.135Z,9.11
2022-10-23T03:09:49.316Z,9.14
2022-10-23T03:14:51.116Z,9.21
2022-10-23T03:19:53.101Z,9.28
2022-10-23T03:24:54.847Z,9.35
2022-10-23T03:29:56.588Z,9.43
2022-10-23T03:34:58.382Z,9.49
2022-10-23T03:40:00.129Z,9.54
2022-10-23T03:45:04.948Z,9.56
2022-10-23T03:50:10.679Z,9.56
2022-10-23T03:55:13.889Z,9.57
2022-10-23T04:00:15.828Z,9.58
2022-10-23T04:05:21.971Z,9.57
2022-10-23T04:10:28.271Z,9.58
2022-10-23T04:15:30.543Z,9.60
2022-10-23T04:20:32.789Z,9.64
2022-10-23T04:25:37.219Z,9.69
2022-10-23T04:30:39.318Z,9.74
2022-10-23T04:35:41.264Z,9.79
2022-10-23T04:40:43.114Z,9.82
2022-10-23T04:45:45.027Z,9.86
2022-10-23T04:50:58.786Z,9.87
2022-10-23T04:56:07.184Z,9.87
2022-10-23T05:01:22.535Z,9.88
2022-10-23T05:06:24.597Z,9.90
2022-10-23T05:11:56.548Z,9.95
2022-10-23T05:17:02.810Z,9.98
2022-10-23T05:22:05.917Z,10.00
2022-10-23T05:27:28.335Z,10.02
2022-10-23T05:32:32.649Z,10.03
2022-10-23T05:37:34.671Z,10.02
2022-10-23T05:42:47.618Z,10.01
2022-10-23T05:48:01.332Z,10.01
2022-10-23T05:53:38.870Z,10.01
2022-10-23T05:58:50.521Z,10.02
2022-10-23T06:04:05.458Z,10.06
2022-10-23T06:09:25.655Z,10.08
2022-10-23T06:14:30.777Z,10.10
2022-10-23T06:19:33.173Z,10.16
2022-10-23T06:24:35.068Z,10.21
2022-10-23T06:29:39.778Z,10.23
2022-10-23T06:34:42.100Z,10.28
2022-10-23T06:39:44.122Z,10.35
2022-10-23T06:44:52.007Z,10.42
2022-10-23T06:50:10.617Z,10.50
2022-10-23T06:55:15.300Z,10.57
2022-10-23T07:00:17.334Z,10.63
2022-10-23T07:05:24.658Z,10.74
2022-10-23T07:10:27.759Z,10.86
2022-10-23T07:15:32.698Z,10.95
2022-10-23T07:20:35.713Z,11.04
2022-10-23T07:25:38.032Z,11.15
2022-10-23T07:30:41.402Z,11.24
2022-10-23T07:35:47.415Z,11.29
2022-10-23T07:40:57.767Z,11.37
2022-10-23T07:45:59.770Z,11.45
2022-10-23T07:51:12.446Z,11.50
2022-10-23T07:56:23.451Z,11.48
2022-10-23T08:01:50.575Z,11.49
2022-10-23T08:06:56.409Z,11.54
2022-10-23T08:11:59.014Z,11.60
2022-10-23T08:22:47.134Z,11.80
2022-10-23T08:27:53.262Z,11.88
2022-10-23T08:32:55.291Z,11.91
2022-10-23T08:37:57.283Z,11.93
2022-10-23T08:43:12.067Z,11.96
2022-10-23T08:48:30.237Z,12.02
2022-10-23T08:54:21.555Z,12.06
2022-10-23T08:59:44.063Z,12.09
2022-10-23T09:04:48.891Z,12.12
2022-10-23T09:10:03.690Z,12.18
2022-10-23T09:15:21.456Z,12.27
2022-10-23T09:20:27.280Z,12.37
2022-10-23T09:25:34.103Z,12.45
2022-10-23T09:30:37.057Z,12.56
2022-10-23T09:35:38.865Z,12.62
2022-10-23T09:40:43.151Z,12.71
2022-10-23T09:46:03.058Z,12.78
2022-10-23T09:51:17.968Z,12.87
2022-10-23T09:56:28.124Z,12.89
2022-10-23T10:01:33.313Z,12.93
2022-10-23T10:06:58.482Z,12.96
2022-10-23T10:12:22.944Z,13.07
2022-10-23T10:17:43.735Z,13.23
2022-10-23T10:23:13.398Z,13.40
2022-10-23T10:28:47.427Z,13.58
2022-10-23T10:34:00.762Z,13.74
2022-10-23T10:39:09.074Z,13.93
2022-10-23T10:44:34.206Z,14.14
2022-10-23T10:49:53.824Z,14.35
2022-10-23T10:55:28.613Z,14.53
2022-10-23T11:00:33.238Z,14.56
2022-10-23T11:05:40.977Z,14.61
2022-10-23T11:10:46.753Z,14.66
2022-10-23T11:15:48.928Z,14.64
2022-10-23T11:21:12.539Z,14.59
2022-10-23T11:26:39.347Z,14.63
2022-10-23T11:31:56.548Z,14.81
2022-10-23T11:37:04.908Z,15.10
2022-10-23T11:42:06.946Z,15.45
2022-10-23T11:47:38.217Z,15.88
2022-10-23T11:53:13.576Z,16.33
2022-10-23T11:58:22.185Z,16.54
2022-10-23T12:03:52.936Z,16.80
2022-10-23T12:09:00.956Z,17.00
2022-10-23T12:14:02.775Z,16.98
2022-10-23T12:19:19.823Z,16.88
2022-10-23T12:24:55.724Z,16.82
2022-10-23T12:30:03.819Z,16.82
2022-10-23T12:35:18.264Z,16.82
2022-10-23T12:40:20.601Z,16.79
2022-10-23T12:45:29.648Z,16.72
2022-10-23T12:50:33.548Z,16.67
2022-10-23T12:55:53.202Z,16.66
2022-10-23T13:00:57.392Z,16.63
2022-10-23T13:06:04.222Z,16.62
2022-10-23T13:11:08.957Z,16.64
2022-10-23T13:16:19.445Z,16.63
2022-10-23T13:21:27.227Z,16.65
2022-10-23T13:26:35.930Z,16.73
2022-10-23T13:31:37.844Z,16.77
2022-10-23T13:36:55.614Z,16.77
2022-10-23T13:42:01.883Z,16.77
2022-10-23T13:47:04.759Z,16.72
2022-10-23T13:52:12.052Z,16.67
2022-10-23T13:57:15.513Z,16.53
2022-10-23T14:02:23.108Z,16.35
2022-10-23T14:07:24.964Z,16.25
2022-10-23T14:12:26.757Z,16.16
2022-10-23T14:17:28.583Z,16.06
2022-10-23T14:22:30.456Z,15.95
2022-10-23T14:27:32.361Z,15.84
2022-10-23T14:32:34.170Z,15.76
2022-10-23T14:37:35.996Z,15.68
2022-10-23T14:42:38.044Z,15.59
2022-10-23T14:47:39.823Z,15.51
2022-10-23T14:52:41.574Z,15.40
2022-10-23T14:57:43.645Z,15.26
2022-10-23T15:02:45.823Z,15.13
2022-10-23T15:07:47.968Z,15.00
2022-10-23T15:12:49.783Z,14.87
2022-10-23T15:17:51.588Z,14.75
2022-10-23T15:22:53.465Z,14.65
2022-10-23T15:27:55.267Z,14.55
2022-10-23T15:32:57.153Z,14.40
2022-10-23T15:37:58.904Z,14.25
2022-10-23T15:43:00.705Z,14.09
2022-10-23T15:48:02.590Z,13.92
2022-10-23T15:53:04.805Z,13.75
2022-10-23T15:58:06.880Z,13.57
2022-10-23T16:03:08.724Z,13.38
2022-10-23T16:08:10.745Z,13.21
2022-10-23T16:13:12.564Z,13.04
2022-10-23T16:18:16.165Z,12.90
2022-10-23T16:23:17.922Z,12.75
2022-10-23T16:28:20.018Z,12.60
2022-10-23T16:33:21.831Z,12.45
2022-10-23T16:38:23.601Z,12.30
2022-10-23T16:43:26.343Z,12.17
2022-10-23T16:48:52.659Z,12.03
2022-10-23T16:53:55.416Z,11.94
2022-10-23T17:04:08.338Z,11.80
2022-10-23T17:09:10.220Z,11.74
2022-10-23T17:14:18.771Z,11.70
2022-10-23T17:19:43.742Z,11.67
2022-10-23T17:24:48.884Z,11.65
2022-10-23T17:29:53.347Z,11.60
2022-10-23T17:34:55.145Z,11.56
2022-10-23T17:40:00.167Z,11.51
2022-10-23T17:45:03.276Z,11.45
2022-10-23T17:50:09.509Z,11.39
2022-10-23T17:55:11.573Z,11.34
2022-10-23T18:00:13.648Z,11.28
2022-10-23T18:05:15.479Z,11.23
2022-10-23T18:10:17.404Z,11.20
2022-10-23T18:15:19.272Z,11.18
2022-10-23T18:20:21.345Z,11.18
2022-10-23T18:25:23.059Z,11.16
2022-10-23T18:30:24.975Z,11.12
2022-10-23T18:35:26.880Z,11.09
2022-10-23T18:40:29.217Z,11.07
2022-10-23T18:45:33.108Z,11.03
2022-10-23T18:50:38.322Z,10.99
2022-10-23T18:55:49.431Z,10.93
2022-10-23T19:00:51.337Z,10.87
2022-10-23T19:05:53.627Z,10.79
2022-10-23T19:10:57.760Z,10.70
2022-10-23T19:15:59.559Z,10.62
2022-10-23T19:21:04.961Z,10.53
2022-10-23T19:26:09.440Z,10.44
2022-10-23T19:31:12.411Z,10.37
2022-10-23T19:36:14.497Z,10.30
2022-10-23T19:41:18.234Z,10.22
2022-10-23T19:46:20.022Z,10.15
2022-10-23T19:51:21.857Z,10.10
2022-10-23T19:56:24.124Z,10.06
2022-10-23T20:01:28.694Z,10.04
2022-10-23T20:06:37.149Z,10.01
2022-10-23T20:11:39.942Z,9.96
2022-10-23T20:16:48.067Z,9.89
2022-10-23T20:21:51.896Z,9.78
2022-10-23T20:26:55.949Z,9.65
2022-10-23T20:31:57.864Z,9.54
2022-10-23T20:37:00.788Z,9.43
2022-10-23T20:42:03.655Z,9.36
2022-10-23T20:47:05.429Z,9.31
2022-10-23T20:52:07.154Z,9.27
2022-10-23T20:57:09.023Z,9.23
2022-10-23T21:02:10.818Z,9.18
2022-10-23T21:07:12.919Z,9.12
2022-10-23T21:12:16.692Z,9.05
2022-10-23T21:17:18.811Z,9.00
2022-10-23T21:22:20.558Z,8.97
2022-10-23T21:27:22.688Z,8.95
2022-10-23T21:32:24.495Z,8.97
2022-10-23T21:37:26.503Z,8.99
2022-10-23T21:47:33.453Z,9.05
2022-10-23T21:52:35.260Z,9.06
2022-10-23T21:57:37.183Z,9.05
2022-10-23T22:02:38.945Z,9.03
2022-10-23T22:07:40.795Z,9.02
2022-10-23T22:12:42.710Z,9.00
2022-10-23T22:17:45.010Z,8.98
2022-10-23T22:22:46.858Z,8.96
2022-10-23T22:27:48.667Z,8.96
2022-10-23T22:32:50.526Z,8.99
2022-10-23T22:37:52.625Z,9.03
2022-10-23T22:42:54.493Z,9.07
2022-10-23T22:47:56.258Z,9.10
2022-10-23T22:52:58.333Z,9.14
2022-10-23T22:58:00.085Z,9.18
2022-10-23T23:03:01.926Z,9.26
2022-10-23T23:08:03.783Z,9.32
2022-10-23T23:13:08.387Z,9.36
2022-10-23T23:18:10.188Z,9.41
2022-10-23T23:23:14.203Z,9.48
2022-10-23T23:28:18.539Z,9.52
2022-10-23T23:33:22.331Z,9.54
2022-10-23T23:38:24.265Z,9.55
2022-10-23T23:43:26.035Z,9.56
2022-10-23T23:48:28.005Z,9.56
2022-10-23T23:53:29.774Z,9.55
2022-10-23T23:58:31.538Z,9.53
